sensor_id;sensor_type;location;lat;lon;timestamp;temperature;humidity
29237;DHT22;16266;50.866;4.398;2024-03-25T00:00:24;4.80;99.90
29237;DHT22;16266;50.866;4.398;2024-03-25T00:02:50;4.80;99.90
29237;DHT22;16266;50.866;4.398;2024-03-25T00:05:16;4.80;99.90
29237;DHT22;16266;50.866;4.398;2024-03-25T00:07:48;4.90;99.90
29237;DHT22;16266;50.866;4.398;2024-03-25T00:10:14;4.90;99.90
29237;DHT22;16266;50.866;4.398;2024-03-25T00:12:40;5.00;99.90
29237;DHT22;16266;50.866;4.398;2024-03-25T00:15:06;4.80;99.90
29237;DHT22;16266;50.866;4.398;2024-03-25T00:17:33;4.80;99.90
29237;DHT22;16266;50.866;4.398;2024-03-25T00:19:59;4.90;99.90
29237;DHT22;16266;50.866;4.398;2024-03-25T00:22:25;4.80;99.90
29237;DHT22;16266;50.866;4.398;2024-03-25T00:24:51;4.80;99.90
29237;DHT22;16266;50.866;4.398;2024-03-25T00:27:17;4.90;99.90
29237;DHT22;16266;50.866;4.398;2024-03-25T00:29:44;4.90;99.90
29237;DHT22;16266;50.866;4.398;2024-03-25T00:32:10;4.70;99.90
29237;DHT22;16266;50.866;4.398;2024-03-25T00:34:36;4.70;99.90
29237;DHT22;16266;50.866;4.398;2024-03-25T00:37:02;4.70;99.90
29237;DHT22;16266;50.866;4.398;2024-03-25T00:39:29;4.70;99.90
29237;DHT22;16266;50.866;4.398;2024-03-25T00:41:58;4.70;99.90
29237;DHT22;16266;50.866;4.398;2024-03-25T00:44:23;4.80;99.90
29237;DHT22;16266;50.866;4.398;2024-03-25T00:46:50;4.80;99.90
29237;DHT22;16266;50.866;4.398;2024-03-25T00:49:15;4.90;99.90
29237;DHT22;16266;50.866;4.398;2024-03-25T00:51:41;4.90;99.90
29237;DHT22;16266;50.866;4.398;2024-03-25T00:54:07;4.90;99.90
29237;DHT22;16266;50.866;4.398;2024-03-25T00:56:33;4.80;99.90
29237;DHT22;16266;50.866;4.398;2024-03-25T00:58:58;4.80;99.90
29237;DHT22;16266;50.866;4.398;2024-03-25T01:01:29;4.80;99.90
29237;DHT22;16266;50.866;4.398;2024-03-25T01:03:54;4.70;99.90
29237;DHT22;16266;50.866;4.398;2024-03-25T01:06:20;4.70;99.90
29237;DHT22;16266;50.866;4.398;2024-03-25T01:08:46;4.70;99.90
29237;DHT22;16266;50.866;4.398;2024-03-25T01:11:11;4.80;99.90
29237;DHT22;16266;50.866;4.398;2024-03-25T01:13:37;4.70;99.90
29237;DHT22;16266;50.866;4.398;2024-03-25T01:16:03;4.70;99.90
29237;DHT22;16266;50.866;4.398;2024-03-25T01:18:29;4.60;99.90
29237;DHT22;16266;50.866;4.398;2024-03-25T01:20:54;4.60;99.90
29237;DHT22;16266;50.866;4.398;2024-03-25T01:23:20;4.70;99.90
29237;DHT22;16266;50.866;4.398;2024-03-25T01:25:46;4.70;99.90
29237;DHT22;16266;50.866;4.398;2024-03-25T01:28:12;4.70;99.90
29237;DHT22;16266;50.866;4.398;2024-03-25T01:30:37;4.70;99.90
29237;DHT22;16266;50.866;4.398;2024-03-25T01:33:05;4.80;99.90
29237;DHT22;16266;50.866;4.398;2024-03-25T01:35:31;4.80;99.90
29237;DHT22;16266;50.866;4.398;2024-03-25T01:37:57;4.80;99.90
29237;DHT22;16266;50.866;4.398;2024-03-25T01:40:24;4.80;99.90
29237;DHT22;16266;50.866;4.398;2024-03-25T01:42:57;4.70;99.90
29237;DHT22;16266;50.866;4.398;2024-03-25T01:45:24;4.80;99.90
29237;DHT22;16266;50.866;4.398;2024-03-25T01:47:51;4.70;99.90
29237;DHT22;16266;50.866;4.398;2024-03-25T01:50:17;4.70;99.90
29237;DHT22;16266;50.866;4.398;2024-03-25T01:52:43;4.60;99.90
29237;DHT22;16266;50.866;4.398;2024-03-25T01:55:14;4.60;99.90
29237;DHT22;16266;50.866;4.398;2024-03-25T01:57:43;4.60;99.90
29237;DHT22;16266;50.866;4.398;2024-03-25T02:00:09;4.60;99.90
29237;DHT22;16266;50.866;4.398;2024-03-25T02:02:37;4.60;99.90
29237;DHT22;16266;50.866;4.398;2024-03-25T02:05:07;4.70;99.90
29237;DHT22;16266;50.866;4.398;2024-03-25T02:07:35;4.70;99.90
29237;DHT22;16266;50.866;4.398;2024-03-25T02:10:05;4.80;99.90
29237;DHT22;16266;50.866;4.398;2024-03-25T02:12:32;4.70;99.90
29237;DHT22;16266;50.866;4.398;2024-03-25T02:14:58;4.70;99.90
29237;DHT22;16266;50.866;4.398;2024-03-25T02:17:24;4.80;99.90
29237;DHT22;16266;50.866;4.398;2024-03-25T02:19:51;4.70;99.90
29237;DHT22;16266;50.866;4.398;2024-03-25T02:22:16;4.70;99.90
29237;DHT22;16266;50.866;4.398;2024-03-25T02:24:45;4.70;99.90
29237;DHT22;16266;50.866;4.398;2024-03-25T02:27:11;4.60;99.90
29237;DHT22;16266;50.866;4.398;2024-03-25T02:29:40;4.60;99.90
29237;DHT22;16266;50.866;4.398;2024-03-25T02:32:07;4.70;99.90
29237;DHT22;16266;50.866;4.398;2024-03-25T02:34:39;4.80;99.90
29237;DHT22;16266;50.866;4.398;2024-03-25T02:37:05;4.80;99.90
29237;DHT22;16266;50.866;4.398;2024-03-25T02:39:32;4.70;99.90
29237;DHT22;16266;50.866;4.398;2024-03-25T02:41:58;4.80;99.90
29237;DHT22;16266;50.866;4.398;2024-03-25T02:44:23;4.70;99.90
29237;DHT22;16266;50.866;4.398;2024-03-25T02:46:49;4.70;99.90
29237;DHT22;16266;50.866;4.398;2024-03-25T02:49:15;4.80;99.90
29237;DHT22;16266;50.866;4.398;2024-03-25T02:51:41;4.80;99.90
29237;DHT22;16266;50.866;4.398;2024-03-25T02:54:06;4.80;99.90
29237;DHT22;16266;50.866;4.398;2024-03-25T02:56:34;4.80;99.90
29237;DHT22;16266;50.866;4.398;2024-03-25T02:59:01;4.80;99.90
29237;DHT22;16266;50.866;4.398;2024-03-25T03:01:26;4.90;99.90
29237;DHT22;16266;50.866;4.398;2024-03-25T03:03:52;4.80;99.90
29237;DHT22;16266;50.866;4.398;2024-03-25T03:06:18;4.80;99.90
29237;DHT22;16266;50.866;4.398;2024-03-25T03:08:44;4.90;99.90
29237;DHT22;16266;50.866;4.398;2024-03-25T03:11:10;4.90;99.90
29237;DHT22;16266;50.866;4.398;2024-03-25T03:13:36;4.90;99.90
29237;DHT22;16266;50.866;4.398;2024-03-25T03:16:01;4.90;99.90
29237;DHT22;16266;50.866;4.398;2024-03-25T03:18:27;4.90;99.90
29237;DHT22;16266;50.866;4.398;2024-03-25T03:20:53;4.90;99.90
29237;DHT22;16266;50.866;4.398;2024-03-25T03:23:22;5.00;99.90
29237;DHT22;16266;50.866;4.398;2024-03-25T03:25:47;5.00;99.90
29237;DHT22;16266;50.866;4.398;2024-03-25T03:28:13;5.10;99.90
29237;DHT22;16266;50.866;4.398;2024-03-25T03:30:40;5.00;99.90
29237;DHT22;16266;50.866;4.398;2024-03-25T03:33:06;5.10;99.90
29237;DHT22;16266;50.866;4.398;2024-03-25T03:35:35;5.00;99.90
29237;DHT22;16266;50.866;4.398;2024-03-25T03:38:01;5.10;99.90
29237;DHT22;16266;50.866;4.398;2024-03-25T03:40:29;5.10;99.90
29237;DHT22;16266;50.866;4.398;2024-03-25T03:42:54;5.10;99.90
29237;DHT22;16266;50.866;4.398;2024-03-25T03:45:23;5.20;99.90
29237;DHT22;16266;50.866;4.398;2024-03-25T03:47:49;5.20;99.90
29237;DHT22;16266;50.866;4.398;2024-03-25T03:50:15;5.20;99.90
29237;DHT22;16266;50.866;4.398;2024-03-25T03:52:42;5.30;99.90
29237;DHT22;16266;50.866;4.398;2024-03-25T03:55:08;5.30;99.90
29237;DHT22;16266;50.866;4.398;2024-03-25T03:57:35;5.20;99.90
29237;DHT22;16266;50.866;4.398;2024-03-25T04:00:01;5.20;99.90
29237;DHT22;16266;50.866;4.398;2024-03-25T04:02:28;5.20;99.90
29237;DHT22;16266;50.866;4.398;2024-03-25T04:04:54;5.30;99.90
29237;DHT22;16266;50.866;4.398;2024-03-25T04:07:20;5.30;99.90
29237;DHT22;16266;50.866;4.398;2024-03-25T04:09:46;5.20;99.90
29237;DHT22;16266;50.866;4.398;2024-03-25T04:12:11;5.20;99.90
29237;DHT22;16266;50.866;4.398;2024-03-25T04:14:37;5.30;99.90
29237;DHT22;16266;50.866;4.398;2024-03-25T04:17:04;5.20;99.90
29237;DHT22;16266;50.866;4.398;2024-03-25T04:19:30;5.30;99.90
29237;DHT22;16266;50.866;4.398;2024-03-25T04:21:56;5.20;99.90
29237;DHT22;16266;50.866;4.398;2024-03-25T04:24:21;5.20;99.90
29237;DHT22;16266;50.866;4.398;2024-03-25T04:26:47;5.10;99.90
29237;DHT22;16266;50.866;4.398;2024-03-25T04:29:15;5.10;99.90
29237;DHT22;16266;50.866;4.398;2024-03-25T04:31:41;5.20;99.90
29237;DHT22;16266;50.866;4.398;2024-03-25T04:34:07;5.10;99.90
29237;DHT22;16266;50.866;4.398;2024-03-25T04:36:32;5.20;99.90
29237;DHT22;16266;50.866;4.398;2024-03-25T04:38:58;5.10;99.90
29237;DHT22;16266;50.866;4.398;2024-03-25T04:41:24;5.00;99.90
29237;DHT22;16266;50.866;4.398;2024-03-25T04:43:50;5.10;99.90
29237;DHT22;16266;50.866;4.398;2024-03-25T04:46:16;5.00;99.90
29237;DHT22;16266;50.866;4.398;2024-03-25T04:48:42;5.00;99.90
29237;DHT22;16266;50.866;4.398;2024-03-25T04:51:08;5.00;99.90
29237;DHT22;16266;50.866;4.398;2024-03-25T04:53:34;5.10;99.90
29237;DHT22;16266;50.866;4.398;2024-03-25T04:56:00;5.10;99.90
29237;DHT22;16266;50.866;4.398;2024-03-25T04:58:25;5.10;99.90
29237;DHT22;16266;50.866;4.398;2024-03-25T05:00:51;5.10;99.90
29237;DHT22;16266;50.866;4.398;2024-03-25T05:03:17;5.00;99.90
29237;DHT22;16266;50.866;4.398;2024-03-25T05:05:42;5.00;99.90
29237;DHT22;16266;50.866;4.398;2024-03-25T05:08:08;5.10;99.90
29237;DHT22;16266;50.866;4.398;2024-03-25T05:10:34;5.20;99.90
29237;DHT22;16266;50.866;4.398;2024-03-25T05:13:00;5.10;99.90
29237;DHT22;16266;50.866;4.398;2024-03-25T05:15:25;5.10;99.90
29237;DHT22;16266;50.866;4.398;2024-03-25T05:17:51;5.10;99.90
29237;DHT22;16266;50.866;4.398;2024-03-25T05:20:16;5.10;99.90
29237;DHT22;16266;50.866;4.398;2024-03-25T05:22:42;5.10;99.90
29237;DHT22;16266;50.866;4.398;2024-03-25T05:25:08;5.10;99.90
29237;DHT22;16266;50.866;4.398;2024-03-25T05:27:34;5.10;99.90
29237;DHT22;16266;50.866;4.398;2024-03-25T05:30:00;5.10;99.90
29237;DHT22;16266;50.866;4.398;2024-03-25T05:32:25;5.10;99.90
29237;DHT22;16266;50.866;4.398;2024-03-25T05:34:52;5.10;99.90
29237;DHT22;16266;50.866;4.398;2024-03-25T05:37:18;5.20;99.90
29237;DHT22;16266;50.866;4.398;2024-03-25T05:39:43;5.20;99.90
29237;DHT22;16266;50.866;4.398;2024-03-25T05:42:09;5.20;99.90
29237;DHT22;16266;50.866;4.398;2024-03-25T05:44:35;5.20;99.90
29237;DHT22;16266;50.866;4.398;2024-03-25T05:47:00;5.20;99.90
29237;DHT22;16266;50.866;4.398;2024-03-25T05:49:26;5.30;99.90
29237;DHT22;16266;50.866;4.398;2024-03-25T05:51:52;5.50;99.90
29237;DHT22;16266;50.866;4.398;2024-03-25T05:54:17;5.70;99.90
29237;DHT22;16266;50.866;4.398;2024-03-25T05:56:43;5.60;99.90
29237;DHT22;16266;50.866;4.398;2024-03-25T05:59:08;5.90;99.90
29237;DHT22;16266;50.866;4.398;2024-03-25T06:01:34;6.00;99.90
29237;DHT22;16266;50.866;4.398;2024-03-25T06:04:03;6.10;99.90
29237;DHT22;16266;50.866;4.398;2024-03-25T06:06:29;6.20;99.90
29237;DHT22;16266;50.866;4.398;2024-03-25T06:08:54;6.60;99.90
29237;DHT22;16266;50.866;4.398;2024-03-25T06:11:20;7.00;99.90
29237;DHT22;16266;50.866;4.398;2024-03-25T06:13:47;7.20;99.90
29237;DHT22;16266;50.866;4.398;2024-03-25T06:16:13;7.20;99.90
29237;DHT22;16266;50.866;4.398;2024-03-25T06:18:39;7.30;99.90
29237;DHT22;16266;50.866;4.398;2024-03-25T06:21:06;7.40;99.90
29237;DHT22;16266;50.866;4.398;2024-03-25T06:23:31;7.30;99.90
29237;DHT22;16266;50.866;4.398;2024-03-25T06:25:57;7.30;99.90
29237;DHT22;16266;50.866;4.398;2024-03-25T06:28:23;7.40;99.90
29237;DHT22;16266;50.866;4.398;2024-03-25T06:30:50;7.50;99.90
29237;DHT22;16266;50.866;4.398;2024-03-25T06:33:36;7.60;99.90
29237;DHT22;16266;50.866;4.398;2024-03-25T06:36:20;7.60;99.90
29237;DHT22;16266;50.866;4.398;2024-03-25T06:38:46;7.50;99.90
29237;DHT22;16266;50.866;4.398;2024-03-25T06:41:11;7.40;99.90
29237;DHT22;16266;50.866;4.398;2024-03-25T06:43:37;7.40;99.90
29237;DHT22;16266;50.866;4.398;2024-03-25T06:49:28;7.70;99.90
29237;DHT22;16266;50.866;4.398;2024-03-25T06:51:54;7.70;99.90
29237;DHT22;16266;50.866;4.398;2024-03-25T06:54:20;7.80;99.90
29237;DHT22;16266;50.866;4.398;2024-03-25T06:56:45;7.90;99.90
29237;DHT22;16266;50.866;4.398;2024-03-25T06:59:11;8.00;99.90
29237;DHT22;16266;50.866;4.398;2024-03-25T07:01:37;7.90;99.90
29237;DHT22;16266;50.866;4.398;2024-03-25T07:04:02;8.10;99.90
29237;DHT22;16266;50.866;4.398;2024-03-25T07:06:28;8.30;99.90
29237;DHT22;16266;50.866;4.398;2024-03-25T07:08:54;8.50;99.90
29237;DHT22;16266;50.866;4.398;2024-03-25T07:11:20;8.40;99.90
29237;DHT22;16266;50.866;4.398;2024-03-25T07:13:46;8.70;99.90
29237;DHT22;16266;50.866;4.398;2024-03-25T07:16:11;9.00;99.90
29237;DHT22;16266;50.866;4.398;2024-03-25T07:18:37;9.00;99.90
29237;DHT22;16266;50.866;4.398;2024-03-25T07:21:03;9.40;99.90
29237;DHT22;16266;50.866;4.398;2024-03-25T07:23:28;9.30;99.90
29237;DHT22;16266;50.866;4.398;2024-03-25T07:25:54;9.20;99.90
29237;DHT22;16266;50.866;4.398;2024-03-25T07:28:20;9.50;99.90
29237;DHT22;16266;50.866;4.398;2024-03-25T07:30:46;9.80;99.90
29237;DHT22;16266;50.866;4.398;2024-03-25T07:33:12;10.00;99.90
29237;DHT22;16266;50.866;4.398;2024-03-25T07:35:38;10.20;99.90
29237;DHT22;16266;50.866;4.398;2024-03-25T07:38:03;10.50;99.90
29237;DHT22;16266;50.866;4.398;2024-03-25T07:40:29;11.10;99.90
29237;DHT22;16266;50.866;4.398;2024-03-25T07:42:55;11.80;99.90
29237;DHT22;16266;50.866;4.398;2024-03-25T07:45:22;12.30;99.90
29237;DHT22;16266;50.866;4.398;2024-03-25T07:47:47;12.60;99.90
29237;DHT22;16266;50.866;4.398;2024-03-25T07:50:13;12.30;99.90
29237;DHT22;16266;50.866;4.398;2024-03-25T07:52:38;12.40;99.90
29237;DHT22;16266;50.866;4.398;2024-03-25T07:55:08;12.20;99.90
29237;DHT22;16266;50.866;4.398;2024-03-25T07:57:34;12.40;99.90
29237;DHT22;16266;50.866;4.398;2024-03-25T07:59:59;12.20;99.90
29237;DHT22;16266;50.866;4.398;2024-03-25T08:02:25;12.00;99.90
29237;DHT22;16266;50.866;4.398;2024-03-25T08:04:51;12.10;99.90
29237;DHT22;16266;50.866;4.398;2024-03-25T08:07:16;12.00;99.90
29237;DHT22;16266;50.866;4.398;2024-03-25T08:09:42;12.70;99.90
29237;DHT22;16266;50.866;4.398;2024-03-25T08:12:08;13.60;99.90
29237;DHT22;16266;50.866;4.398;2024-03-25T08:14:33;14.20;99.90
29237;DHT22;16266;50.866;4.398;2024-03-25T08:16:59;14.90;99.90
29237;DHT22;16266;50.866;4.398;2024-03-25T08:19:25;15.50;99.90
29237;DHT22;16266;50.866;4.398;2024-03-25T08:21:50;16.10;99.90
29237;DHT22;16266;50.866;4.398;2024-03-25T08:24:16;15.90;99.90
29237;DHT22;16266;50.866;4.398;2024-03-25T08:26:42;15.90;99.90
29237;DHT22;16266;50.866;4.398;2024-03-25T08:29:09;17.00;99.90
29237;DHT22;16266;50.866;4.398;2024-03-25T08:31:34;17.20;99.90
29237;DHT22;16266;50.866;4.398;2024-03-25T08:34:00;18.10;99.90
29237;DHT22;16266;50.866;4.398;2024-03-25T08:36:26;19.00;99.90
29237;DHT22;16266;50.866;4.398;2024-03-25T08:38:51;19.00;99.90
29237;DHT22;16266;50.866;4.398;2024-03-25T08:41:17;19.60;99.90
29237;DHT22;16266;50.866;4.398;2024-03-25T08:49:59;21.30;98.40
29237;DHT22;16266;50.866;4.398;2024-03-25T08:52:24;22.50;92.30
29237;DHT22;16266;50.866;4.398;2024-03-25T08:54:50;23.20;78.10
29237;DHT22;16266;50.866;4.398;2024-03-25T08:57:15;23.70;59.70
29237;DHT22;16266;50.866;4.398;2024-03-25T08:59:41;24.00;29.40
29237;DHT22;16266;50.866;4.398;2024-03-25T09:02:07;24.10;24.80
29237;DHT22;16266;50.866;4.398;2024-03-25T09:04:33;22.50;46.00
29237;DHT22;16266;50.866;4.398;2024-03-25T09:06:59;23.00;27.50
29237;DHT22;16266;50.866;4.398;2024-03-25T09:09:25;23.90;12.80
29237;DHT22;16266;50.866;4.398;2024-03-25T09:12:09;23.00;21.70
29237;DHT22;16266;50.866;4.398;2024-03-25T09:14:35;22.80;20.40
29237;DHT22;16266;50.866;4.398;2024-03-25T09:17:02;23.10;29.60
29237;DHT22;16266;50.866;4.398;2024-03-25T09:19:28;22.50;23.50
29237;DHT22;16266;50.866;4.398;2024-03-25T09:21:54;21.70;30.00
29237;DHT22;16266;50.866;4.398;2024-03-25T09:24:19;22.20;29.10
29237;DHT22;16266;50.866;4.398;2024-03-25T09:26:45;21.60;28.00
29237;DHT22;16266;50.866;4.398;2024-03-25T09:29:15;22.10;27.30
29237;DHT22;16266;50.866;4.398;2024-03-25T09:31:40;22.60;32.90
29237;DHT22;16266;50.866;4.398;2024-03-25T09:34:06;23.20;18.70
29237;DHT22;16266;50.866;4.398;2024-03-25T09:36:32;23.10;8.60
29237;DHT22;16266;50.866;4.398;2024-03-25T09:38:57;22.30;28.60
29237;DHT22;16266;50.866;4.398;2024-03-25T09:41:23;23.00;21.70
29237;DHT22;16266;50.866;4.398;2024-03-25T09:43:53;24.50;11.90
29237;DHT22;16266;50.866;4.398;2024-03-25T09:46:20;25.00;1.00
29237;DHT22;16266;50.866;4.398;2024-03-25T09:48:46;25.70;1.00
29237;DHT22;16266;50.866;4.398;2024-03-25T09:51:12;25.30;1.00
29237;DHT22;16266;50.866;4.398;2024-03-25T09:53:37;25.80;1.00
29237;DHT22;16266;50.866;4.398;2024-03-25T09:56:04;26.40;1.00
29237;DHT22;16266;50.866;4.398;2024-03-25T09:58:30;26.30;1.00
29237;DHT22;16266;50.866;4.398;2024-03-25T10:00:57;25.40;1.00
29237;DHT22;16266;50.866;4.398;2024-03-25T10:03:23;26.20;1.00
29237;DHT22;16266;50.866;4.398;2024-03-25T10:05:50;25.70;1.00
29237;DHT22;16266;50.866;4.398;2024-03-25T10:08:22;25.20;1.00
29237;DHT22;16266;50.866;4.398;2024-03-25T10:10:47;26.40;1.00
29237;DHT22;16266;50.866;4.398;2024-03-25T10:13:13;27.20;1.00
29237;DHT22;16266;50.866;4.398;2024-03-25T10:15:39;28.30;1.00
29237;DHT22;16266;50.866;4.398;2024-03-25T10:18:05;29.10;1.00
29237;DHT22;16266;50.866;4.398;2024-03-25T10:20:30;28.80;1.00
29237;DHT22;16266;50.866;4.398;2024-03-25T10:22:56;28.70;1.00
29237;DHT22;16266;50.866;4.398;2024-03-25T10:25:30;29.60;1.00
29237;DHT22;16266;50.866;4.398;2024-03-25T10:27:57;29.30;1.00
29237;DHT22;16266;50.866;4.398;2024-03-25T10:30:24;27.40;1.00
29237;DHT22;16266;50.866;4.398;2024-03-25T10:35:26;23.90;1.00
29237;DHT22;16266;50.866;4.398;2024-03-25T10:37:59;22.30;1.00
29237;DHT22;16266;50.866;4.398;2024-03-25T10:40:29;22.90;1.00
29237;DHT22;16266;50.866;4.398;2024-03-25T10:43:01;22.40;1.00
29237;DHT22;16266;50.866;4.398;2024-03-25T10:45:31;22.90;1.00
29237;DHT22;16266;50.866;4.398;2024-03-25T10:47:57;24.60;1.00
29237;DHT22;16266;50.866;4.398;2024-03-25T10:50:28;25.20;1.00
29237;DHT22;16266;50.866;4.398;2024-03-25T10:52:54;25.20;1.00
29237;DHT22;16266;50.866;4.398;2024-03-25T10:55:21;24.80;1.00
29237;DHT22;16266;50.866;4.398;2024-03-25T10:57:48;25.00;1.00
29237;DHT22;16266;50.866;4.398;2024-03-25T11:00:15;24.90;1.00
29237;DHT22;16266;50.866;4.398;2024-03-25T11:02:42;25.00;1.00
29237;DHT22;16266;50.866;4.398;2024-03-25T11:05:09;23.90;1.00
29237;DHT22;16266;50.866;4.398;2024-03-25T11:07:36;22.60;1.00
29237;DHT22;16266;50.866;4.398;2024-03-25T11:10:05;22.30;1.00
29237;DHT22;16266;50.866;4.398;2024-03-25T11:12:32;22.70;1.00
29237;DHT22;16266;50.866;4.398;2024-03-25T11:15:02;23.30;1.00
29237;DHT22;16266;50.866;4.398;2024-03-25T11:17:29;23.20;1.00
29237;DHT22;16266;50.866;4.398;2024-03-25T11:20:05;23.20;1.00
29237;DHT22;16266;50.866;4.398;2024-03-25T11:22:32;22.60;1.00
29237;DHT22;16266;50.866;4.398;2024-03-25T11:25:06;23.20;1.00
29237;DHT22;16266;50.866;4.398;2024-03-25T11:27:35;22.00;1.00
29237;DHT22;16266;50.866;4.398;2024-03-25T11:30:02;22.90;1.00
29237;DHT22;16266;50.866;4.398;2024-03-25T11:32:28;21.90;1.00
29237;DHT22;16266;50.866;4.398;2024-03-25T11:34:54;19.90;1.00
29237;DHT22;16266;50.866;4.398;2024-03-25T11:37:20;19.20;1.00
29237;DHT22;16266;50.866;4.398;2024-03-25T11:39:45;18.70;1.00
29237;DHT22;16266;50.866;4.398;2024-03-25T11:42:13;20.30;1.00
29237;DHT22;16266;50.866;4.398;2024-03-25T11:44:41;20.90;1.00
29237;DHT22;16266;50.866;4.398;2024-03-25T11:47:09;21.40;1.00
29237;DHT22;16266;50.866;4.398;2024-03-25T11:49:39;21.00;1.00
29237;DHT22;16266;50.866;4.398;2024-03-25T11:52:06;21.00;1.00
29237;DHT22;16266;50.866;4.398;2024-03-25T11:54:32;20.20;1.00
29237;DHT22;16266;50.866;4.398;2024-03-25T11:56:58;19.70;1.00
29237;DHT22;16266;50.866;4.398;2024-03-25T11:59:25;20.60;1.00
29237;DHT22;16266;50.866;4.398;2024-03-25T12:01:51;20.50;1.00
29237;DHT22;16266;50.866;4.398;2024-03-25T12:04:17;19.70;1.00
29237;DHT22;16266;50.866;4.398;2024-03-25T12:06:44;20.40;1.00
29237;DHT22;16266;50.866;4.398;2024-03-25T12:09:11;19.80;1.00
29237;DHT22;16266;50.866;4.398;2024-03-25T12:11:56;19.00;1.00
29237;DHT22;16266;50.866;4.398;2024-03-25T12:14:22;18.80;1.00
29237;DHT22;16266;50.866;4.398;2024-03-25T12:16:49;18.60;1.00
29237;DHT22;16266;50.866;4.398;2024-03-25T12:19:16;18.20;1.00
29237;DHT22;16266;50.866;4.398;2024-03-25T12:21:43;17.60;1.00
29237;DHT22;16266;50.866;4.398;2024-03-25T12:24:10;18.50;1.00
29237;DHT22;16266;50.866;4.398;2024-03-25T12:26:36;18.80;1.00
29237;DHT22;16266;50.866;4.398;2024-03-25T12:29:02;19.70;1.00
29237;DHT22;16266;50.866;4.398;2024-03-25T12:31:30;19.20;1.00
29237;DHT22;16266;50.866;4.398;2024-03-25T12:33:55;18.70;1.00
29237;DHT22;16266;50.866;4.398;2024-03-25T12:36:21;19.50;1.00
29237;DHT22;16266;50.866;4.398;2024-03-25T12:38:54;21.20;1.00
29237;DHT22;16266;50.866;4.398;2024-03-25T12:41:22;21.90;1.00
29237;DHT22;16266;50.866;4.398;2024-03-25T12:43:50;21.70;1.00
29237;DHT22;16266;50.866;4.398;2024-03-25T12:46:16;20.90;1.00
29237;DHT22;16266;50.866;4.398;2024-03-25T12:48:42;20.70;1.00
29237;DHT22;16266;50.866;4.398;2024-03-25T12:51:17;20.60;1.00
29237;DHT22;16266;50.866;4.398;2024-03-25T12:53:44;19.90;1.00
29237;DHT22;16266;50.866;4.398;2024-03-25T12:56:09;19.30;1.00
29237;DHT22;16266;50.866;4.398;2024-03-25T12:58:35;18.80;1.00
29237;DHT22;16266;50.866;4.398;2024-03-25T13:01:01;18.90;1.00
29237;DHT22;16266;50.866;4.398;2024-03-25T13:03:26;19.30;1.00
29237;DHT22;16266;50.866;4.398;2024-03-25T13:05:52;20.20;1.00
29237;DHT22;16266;50.866;4.398;2024-03-25T13:08:19;21.70;1.00
29237;DHT22;16266;50.866;4.398;2024-03-25T13:10:45;21.70;1.00
29237;DHT22;16266;50.866;4.398;2024-03-25T13:13:11;21.30;1.00
29237;DHT22;16266;50.866;4.398;2024-03-25T13:15:36;21.40;1.00
29237;DHT22;16266;50.866;4.398;2024-03-25T13:18:02;21.30;1.00
29237;DHT22;16266;50.866;4.398;2024-03-25T13:20:28;20.90;1.00
29237;DHT22;16266;50.866;4.398;2024-03-25T13:22:54;20.90;1.00
29237;DHT22;16266;50.866;4.398;2024-03-25T13:25:25;20.50;1.00
29237;DHT22;16266;50.866;4.398;2024-03-25T13:27:50;20.30;1.00
29237;DHT22;16266;50.866;4.398;2024-03-25T13:30:16;20.40;1.00
29237;DHT22;16266;50.866;4.398;2024-03-25T13:32:42;20.50;1.00
29237;DHT22;16266;50.866;4.398;2024-03-25T13:35:08;20.20;1.00
29237;DHT22;16266;50.866;4.398;2024-03-25T13:37:33;19.20;1.00
29237;DHT22;16266;50.866;4.398;2024-03-25T13:39:59;18.70;1.00
29237;DHT22;16266;50.866;4.398;2024-03-25T13:42:24;18.40;1.00
29237;DHT22;16266;50.866;4.398;2024-03-25T13:44:50;18.30;1.00
29237;DHT22;16266;50.866;4.398;2024-03-25T13:47:16;18.00;1.00
29237;DHT22;16266;50.866;4.398;2024-03-25T13:49:42;17.20;1.00
29237;DHT22;16266;50.866;4.398;2024-03-25T13:52:07;16.80;1.00
29237;DHT22;16266;50.866;4.398;2024-03-25T13:54:33;16.60;1.00
29237;DHT22;16266;50.866;4.398;2024-03-25T13:56:59;16.40;1.00
29237;DHT22;16266;50.866;4.398;2024-03-25T13:59:24;16.70;1.00
29237;DHT22;16266;50.866;4.398;2024-03-25T14:01:50;16.90;1.00
29237;DHT22;16266;50.866;4.398;2024-03-25T14:04:20;17.00;1.00
29237;DHT22;16266;50.866;4.398;2024-03-25T14:06:45;17.20;1.00
29237;DHT22;16266;50.866;4.398;2024-03-25T14:09:31;17.20;1.00
29237;DHT22;16266;50.866;4.398;2024-03-25T14:11:57;17.00;1.00
29237;DHT22;16266;50.866;4.398;2024-03-25T14:14:23;16.80;1.00
29237;DHT22;16266;50.866;4.398;2024-03-25T14:16:48;16.80;1.00
29237;DHT22;16266;50.866;4.398;2024-03-25T14:19:14;16.50;1.00
29237;DHT22;16266;50.866;4.398;2024-03-25T14:21:40;16.20;1.00
29237;DHT22;16266;50.866;4.398;2024-03-25T14:24:06;16.00;1.00
29237;DHT22;16266;50.866;4.398;2024-03-25T14:26:32;15.70;1.00
29237;DHT22;16266;50.866;4.398;2024-03-25T14:28:58;15.70;1.00
29237;DHT22;16266;50.866;4.398;2024-03-25T14:31:25;15.60;1.00
29237;DHT22;16266;50.866;4.398;2024-03-25T14:33:51;15.40;1.00
29237;DHT22;16266;50.866;4.398;2024-03-25T14:36:16;15.00;1.00
29237;DHT22;16266;50.866;4.398;2024-03-25T14:38:42;14.90;1.00
29237;DHT22;16266;50.866;4.398;2024-03-25T14:41:11;14.80;1.00
29237;DHT22;16266;50.866;4.398;2024-03-25T14:43:36;14.70;1.00
29237;DHT22;16266;50.866;4.398;2024-03-25T14:46:02;14.40;1.00
29237;DHT22;16266;50.866;4.398;2024-03-25T14:48:29;14.50;1.00
29237;DHT22;16266;50.866;4.398;2024-03-25T14:50:54;14.40;1.00
29237;DHT22;16266;50.866;4.398;2024-03-25T14:53:20;14.40;1.00
29237;DHT22;16266;50.866;4.398;2024-03-25T14:55:46;14.40;1.00
29237;DHT22;16266;50.866;4.398;2024-03-25T14:58:11;14.30;1.00
29237;DHT22;16266;50.866;4.398;2024-03-25T15:00:37;14.30;1.00
29237;DHT22;16266;50.866;4.398;2024-03-25T15:03:03;14.30;1.00
29237;DHT22;16266;50.866;4.398;2024-03-25T15:05:29;14.50;1.00
29237;DHT22;16266;50.866;4.398;2024-03-25T15:07:55;14.30;1.00
29237;DHT22;16266;50.866;4.398;2024-03-25T15:10:21;14.20;1.00
29237;DHT22;16266;50.866;4.398;2024-03-25T15:12:47;14.20;1.00
29237;DHT22;16266;50.866;4.398;2024-03-25T15:15:13;14.20;1.00
29237;DHT22;16266;50.866;4.398;2024-03-25T15:17:39;14.10;1.00
29237;DHT22;16266;50.866;4.398;2024-03-25T15:20:05;14.10;1.00
29237;DHT22;16266;50.866;4.398;2024-03-25T15:22:31;14.10;1.00
29237;DHT22;16266;50.866;4.398;2024-03-25T15:24:57;14.20;1.00
29237;DHT22;16266;50.866;4.398;2024-03-25T15:27:23;14.20;1.00
29237;DHT22;16266;50.866;4.398;2024-03-25T15:33:10;14.00;1.00
29237;DHT22;16266;50.866;4.398;2024-03-25T15:35:36;13.90;1.00
29237;DHT22;16266;50.866;4.398;2024-03-25T15:38:02;14.00;2.00
29237;DHT22;16266;50.866;4.398;2024-03-25T15:40:27;13.90;4.10
29237;DHT22;16266;50.866;4.398;2024-03-25T15:42:53;13.80;3.90
29237;DHT22;16266;50.866;4.398;2024-03-25T15:45:18;13.70;8.00
29237;DHT22;16266;50.866;4.398;2024-03-25T15:47:44;13.90;12.40
29237;DHT22;16266;50.866;4.398;2024-03-25T15:50:10;14.00;7.70
29237;DHT22;16266;50.866;4.398;2024-03-25T15:52:36;13.90;8.40
29237;DHT22;16266;50.866;4.398;2024-03-25T15:55:02;13.80;13.30